createdAt,value
2019-03-31T00:00:14.776Z,41.41
2019-03-31T00:01:14.768Z,41.25
2019-03-31T00:02:14.764Z,41.25
2019-03-31T00:03:14.758Z,41.41
2019-03-31T00:04:14.752Z,41.25
2019-03-31T00:05:14.745Z,41.08
2019-03-31T00:06:14.737Z,41.57
2019-03-31T00:07:14.731Z,41.25
2019-03-31T00:08:14.722Z,41.25
2019-03-31T00:09:14.715Z,41.08
2019-03-31T00:10:14.711Z,41.25
2019-03-31T00:11:14.702Z,41.25
2019-03-31T00:12:14.696Z,41.41
2019-03-31T00:13:14.690Z,41.25
2019-03-31T00:14:14.732Z,41.41
2019-03-31T00:15:14.677Z,41.41
2019-03-31T00:16:14.670Z,41.08
2019-03-31T00:17:14.669Z,41.57
2019-03-31T00:18:14.656Z,41.41
2019-03-31T00:19:14.653Z,41.25
2019-03-31T00:20:14.647Z,41.25
2019-03-31T00:21:14.642Z,41.41
2019-03-31T00:22:14.640Z,40.92
2019-03-31T00:23:14.627Z,41.25
2019-03-31T00:24:14.622Z,41.41
2019-03-31T00:25:14.618Z,41.25
2019-03-31T00:26:14.613Z,41.25
2019-03-31T00:27:14.607Z,41.25
2019-03-31T00:28:14.599Z,41.25
2019-03-31T00:29:14.593Z,41.41
2019-03-31T00:30:14.586Z,41.08
2019-03-31T00:31:22.138Z,41.57
2019-03-31T00:33:42.294Z,41.41
2019-03-31T00:34:42.288Z,41.25
2019-03-31T00:35:42.285Z,41.25
2019-03-31T00:36:42.286Z,41.41
2019-03-31T00:37:42.276Z,41.25
2019-03-31T00:38:42.264Z,41.57
2019-03-31T00:39:42.254Z,41.41
2019-03-31T00:40:42.246Z,41.41
2019-03-31T00:41:42.240Z,41.41
2019-03-31T00:42:42.234Z,40.92
2019-03-31T00:44:42.222Z,41.41
2019-03-31T00:45:42.272Z,41.41
2019-03-31T00:46:42.208Z,41.41
2019-03-31T00:47:42.202Z,41.41
2019-03-31T00:48:42.194Z,41.41
2019-03-31T00:49:42.192Z,41.41
2019-03-31T00:50:42.182Z,41.08
2019-03-31T00:51:42.246Z,41.25
2019-03-31T00:52:42.170Z,41.41
2019-03-31T00:53:42.164Z,41.08
2019-03-31T00:54:42.156Z,41.08
2019-03-31T00:55:42.154Z,41.08
2019-03-31T00:56:42.144Z,41.25
2019-03-31T00:57:42.136Z,41.08
2019-03-31T00:58:42.130Z,40.92
2019-03-31T00:59:42.124Z,41.08
2019-03-31T01:00:42.123Z,41.25
2019-03-31T01:01:42.112Z,40.92
2019-03-31T01:02:42.106Z,41.25
2019-03-31T01:03:42.099Z,41.08
2019-03-31T01:04:42.092Z,41.25
2019-03-31T01:05:42.088Z,41.25
2019-03-31T01:06:42.080Z,41.08
2019-03-31T01:07:42.072Z,40.92
2019-03-31T01:08:42.068Z,41.25
2019-03-31T01:09:42.063Z,41.57
2019-03-31T01:10:42.060Z,41.25
2019-03-31T01:11:42.051Z,41.41
2019-03-31T01:12:42.050Z,41.25
2019-03-31T01:13:42.036Z,41.25
2019-03-31T01:14:42.031Z,41.08
2019-03-31T01:15:42.025Z,41.08
2019-03-31T01:16:42.015Z,41.08
2019-03-31T01:17:42.011Z,40.92
2019-03-31T01:18:42.000Z,41.08
2019-03-31T01:19:41.995Z,41.25
2019-03-31T01:20:42.073Z,40.92
2019-03-31T01:21:41.986Z,41.41
2019-03-31T01:22:41.975Z,41.41
2019-03-31T01:23:41.966Z,41.57
2019-03-31T01:24:41.957Z,41.57
2019-03-31T01:25:41.950Z,41.25
2019-03-31T01:26:41.950Z,41.25
2019-03-31T01:27:41.939Z,41.25
2019-03-31T01:28:41.932Z,41.25
2019-03-31T01:29:41.930Z,41.25
2019-03-31T01:30:41.920Z,41.25
2019-03-31T01:31:50.070Z,41.57
2019-03-31T01:34:09.677Z,41.57
2019-03-31T01:35:09.622Z,41.41
2019-03-31T01:36:09.618Z,41.57
2019-03-31T01:37:09.609Z,40.92
2019-03-31T01:38:09.609Z,41.25
2019-03-31T01:39:09.600Z,41.41
2019-03-31T01:40:09.592Z,41.41
2019-03-31T01:41:09.589Z,41.57
2019-03-31T01:42:09.579Z,41.41
2019-03-31T01:43:09.572Z,41.57
2019-03-31T01:44:09.565Z,41.41
2019-03-31T01:45:09.564Z,41.41
2019-03-31T01:46:09.550Z,41.57
2019-03-31T01:47:09.542Z,41.41
2019-03-31T01:48:09.534Z,41.25
2019-03-31T01:49:09.529Z,41.57
2019-03-31T01:50:09.572Z,41.41
2019-03-31T01:51:09.515Z,41.73
2019-03-31T01:52:09.509Z,41.08
2019-03-31T01:53:09.505Z,41.41
2019-03-31T01:54:09.494Z,41.57
2019-03-31T01:55:09.490Z,41.41
2019-03-31T01:56:09.484Z,41.57
2019-03-31T01:57:09.475Z,41.73
2019-03-31T01:58:09.470Z,41.41
2019-03-31T01:59:09.465Z,41.57
2019-03-31T02:00:09.460Z,41.57
2019-03-31T02:01:09.450Z,41.25
2019-03-31T02:02:09.446Z,41.25
2019-03-31T02:03:09.434Z,41.57
2019-03-31T02:04:09.428Z,41.57
2019-03-31T02:05:09.424Z,41.25
2019-03-31T02:06:09.467Z,41.25
2019-03-31T02:07:09.408Z,41.57
2019-03-31T02:08:09.403Z,41.73
2019-03-31T02:09:09.393Z,41.57
2019-03-31T02:10:09.388Z,41.41
2019-03-31T02:11:09.386Z,41.41
2019-03-31T02:12:09.377Z,41.25
2019-03-31T02:13:09.374Z,41.73
2019-03-31T02:14:09.365Z,41.73
2019-03-31T02:15:09.358Z,41.41
2019-03-31T02:16:09.352Z,41.73
2019-03-31T02:17:09.344Z,41.25
2019-03-31T02:18:09.337Z,41.41
2019-03-31T02:19:09.331Z,41.57
2019-03-31T02:20:09.324Z,41.57
2019-03-31T02:21:09.318Z,41.57
2019-03-31T02:22:09.330Z,41.41
2019-03-31T02:23:09.323Z,41.57
2019-03-31T02:24:09.317Z,41.41
2019-03-31T02:25:09.312Z,41.73
2019-03-31T02:26:09.305Z,41.57
2019-03-31T02:27:09.300Z,41.41
2019-03-31T02:28:09.293Z,41.57
2019-03-31T02:29:09.286Z,41.57
2019-03-31T02:30:09.288Z,41.89
2019-03-31T02:31:09.275Z,41.41
2019-03-31T02:32:23.266Z,41.57
2019-03-31T02:34:36.986Z,41.41
2019-03-31T02:35:36.978Z,41.41
2019-03-31T02:36:36.972Z,41.41
2019-03-31T02:37:37.020Z,40.92
2019-03-31T02:38:36.974Z,41.41
2019-03-31T02:39:36.968Z,41.25
2019-03-31T02:40:36.960Z,41.08
2019-03-31T02:41:36.954Z,41.25
2019-03-31T02:42:36.951Z,41.41
2019-03-31T02:43:36.943Z,41.57
2019-03-31T02:44:36.952Z,41.25
2019-03-31T02:45:36.930Z,41.25
2019-03-31T02:46:36.927Z,41.25
2019-03-31T02:47:36.918Z,40.76
2019-03-31T02:48:36.911Z,41.08
2019-03-31T02:49:36.908Z,41.08
2019-03-31T02:50:36.913Z,41.25
2019-03-31T02:51:36.890Z,41.08
2019-03-31T02:52:36.884Z,41.08
2019-03-31T02:53:36.880Z,41.08
2019-03-31T02:54:36.872Z,41.25
2019-03-31T02:55:36.865Z,41.25
2019-03-31T02:56:36.859Z,41.25
2019-03-31T02:57:36.863Z,41.41
2019-03-31T02:58:36.846Z,41.08
2019-03-31T02:59:36.837Z,41.73
2019-03-31T03:00:36.850Z,41.57
2019-03-31T03:01:36.844Z,41.57
2019-03-31T03:02:41.950Z,41.73
2019-03-31T03:03:36.830Z,41.57
2019-03-31T03:04:36.825Z,40.92
2019-03-31T03:05:36.816Z,41.73
2019-03-31T03:06:36.828Z,41.73
2019-03-31T03:07:36.814Z,41.73
2019-03-31T03:08:36.792Z,41.41
2019-03-31T03:09:36.836Z,41.41
2019-03-31T03:10:36.786Z,41.41
2019-03-31T03:11:36.772Z,41.41
2019-03-31T03:12:36.768Z,41.41
2019-03-31T03:13:36.756Z,41.57
2019-03-31T03:14:36.759Z,41.73
2019-03-31T03:15:36.745Z,41.41
2019-03-31T03:16:36.739Z,41.41
2019-03-31T03:17:36.731Z,41.41
2019-03-31T03:18:36.726Z,41.57
2019-03-31T03:19:36.726Z,41.25
2019-03-31T03:20:36.711Z,41.57
2019-03-31T03:21:36.703Z,41.41
2019-03-31T03:22:36.701Z,41.73
2019-03-31T03:23:36.706Z,41.73
2019-03-31T03:24:36.687Z,41.73
2019-03-31T03:25:36.681Z,41.25
2019-03-31T03:26:36.676Z,41.57
2019-03-31T03:27:36.667Z,41.57
2019-03-31T03:28:36.661Z,41.73
2019-03-31T03:29:36.659Z,41.25
2019-03-31T03:30:36.860Z,41.57
2019-03-31T03:31:36.645Z,41.73
2019-03-31T03:32:36.655Z,41.57
2019-03-31T03:33:36.634Z,41.73
2019-03-31T03:34:36.644Z,41.41
2019-03-31T03:35:36.618Z,41.08
2019-03-31T03:36:36.613Z,41.41
2019-03-31T03:37:36.605Z,41.08
2019-03-31T03:38:36.595Z,41.73
2019-03-31T03:39:36.592Z,41.41
2019-03-31T03:40:36.583Z,41.25
2019-03-31T03:41:36.579Z,41.73
2019-03-31T03:42:36.604Z,41.41
2019-03-31T03:43:54.270Z,41.73
2019-03-31T03:46:04.322Z,41.89
2019-03-31T03:47:04.317Z,41.73
2019-03-31T03:48:04.309Z,41.57
2019-03-31T03:49:04.358Z,41.57
2019-03-31T03:50:04.295Z,41.41
2019-03-31T03:51:04.294Z,41.73
2019-03-31T03:52:04.282Z,41.73
2019-03-31T03:53:04.279Z,41.57
2019-03-31T03:54:04.267Z,41.73
2019-03-31T03:55:04.262Z,41.57
2019-03-31T03:56:04.253Z,41.41
2019-03-31T03:57:04.253Z,41.73
2019-03-31T03:58:04.242Z,41.57
2019-03-31T03:59:04.237Z,41.57
2019-03-31T04:00:04.229Z,41.73
2019-03-31T04:01:04.220Z,41.57
2019-03-31T04:02:04.216Z,41.73
2019-03-31T04:03:04.214Z,41.41
2019-03-31T04:04:04.203Z,41.89
2019-03-31T04:05:04.196Z,41.73
2019-03-31T04:06:04.190Z,41.73
2019-03-31T04:07:04.183Z,41.57
2019-03-31T04:08:04.173Z,41.73
2019-03-31T04:09:04.167Z,41.08
2019-03-31T04:10:04.162Z,41.73
2019-03-31T04:11:04.158Z,41.41
2019-03-31T04:12:04.147Z,41.73
2019-03-31T04:13:04.141Z,41.25
2019-03-31T04:14:04.140Z,41.57
2019-03-31T04:15:04.142Z,41.73
2019-03-31T04:16:04.121Z,41.89
2019-03-31T04:17:04.118Z,41.57
2019-03-31T04:18:04.109Z,41.57
2019-03-31T04:19:04.101Z,41.73
2019-03-31T04:20:04.094Z,41.73
2019-03-31T04:21:04.087Z,41.57
2019-03-31T04:22:04.080Z,41.73
2019-03-31T04:23:04.077Z,41.73
2019-03-31T04:24:04.082Z,41.73
2019-03-31T04:25:04.082Z,41.89
2019-03-31T04:26:04.070Z,41.57
2019-03-31T04:27:04.061Z,41.57
2019-03-31T04:28:04.054Z,41.73
2019-03-31T04:29:04.052Z,41.73
2019-03-31T04:30:04.043Z,41.73
2019-03-31T04:31:04.034Z,41.41
2019-03-31T04:32:04.030Z,41.89
2019-03-31T04:33:04.025Z,41.41
2019-03-31T04:34:04.014Z,41.41
2019-03-31T04:35:04.004Z,41.57
2019-03-31T04:36:04.000Z,41.25
2019-03-31T04:37:03.996Z,41.25
2019-03-31T04:38:03.984Z,41.57
2019-03-31T04:39:03.996Z,41.41
2019-03-31T04:40:03.979Z,41.41
2019-03-31T04:41:03.967Z,41.57
2019-03-31T04:42:03.987Z,41.73
2019-03-31T04:43:03.983Z,41.73
2019-03-31T04:44:03.970Z,41.73
2019-03-31T04:45:03.966Z,41.73
2019-03-31T04:46:03.960Z,41.73
2019-03-31T04:47:03.953Z,41.73
2019-03-31T04:48:03.946Z,41.41
2019-03-31T04:49:03.943Z,41.89
2019-03-31T04:50:03.932Z,41.73
2019-03-31T04:51:03.923Z,41.73
2019-03-31T04:52:03.921Z,41.73
2019-03-31T04:53:03.913Z,41.73
2019-03-31T04:54:03.907Z,41.41
2019-03-31T04:55:03.904Z,41.57
2019-03-31T04:56:03.899Z,41.57
2019-03-31T04:57:04.667Z,41.25
2019-03-31T04:58:03.880Z,41.73
2019-03-31T04:59:03.877Z,41.73
2019-03-31T05:00:03.870Z,41.89
2019-03-31T05:01:03.860Z,41.57
2019-03-31T05:02:03.855Z,41.89
2019-03-31T05:03:03.846Z,41.73
2019-03-31T05:04:05.378Z,41.73
2019-03-31T05:05:03.837Z,41.57
2019-03-31T05:06:03.828Z,41.89
2019-03-31T05:07:03.818Z,41.89
2019-03-31T05:08:03.808Z,41.57
2019-03-31T05:09:03.803Z,41.25
2019-03-31T05:10:03.800Z,41.41
2019-03-31T05:11:03.793Z,41.57
2019-03-31T05:12:03.788Z,41.57
2019-03-31T05:13:03.779Z,41.41
2019-03-31T05:14:03.778Z,41.41
2019-03-31T05:15:03.774Z,41.25
2019-03-31T05:16:03.763Z,41.41
2019-03-31T05:17:03.754Z,41.08
2019-03-31T05:18:03.756Z,41.25
2019-03-31T05:19:03.742Z,41.57
2019-03-31T05:20:03.737Z,41.57
2019-03-31T05:21:03.735Z,41.08
2019-03-31T05:22:03.726Z,41.57
2019-03-31T05:23:03.720Z,41.73
2019-03-31T05:24:03.717Z,41.41
2019-03-31T05:25:03.703Z,41.73
2019-03-31T05:26:03.696Z,41.57
2019-03-31T05:27:03.687Z,41.41
2019-03-31T05:28:03.684Z,41.57
2019-03-31T05:29:03.681Z,41.89
2019-03-31T05:30:03.674Z,41.08
2019-03-31T05:31:03.662Z,41.57
2019-03-31T05:32:03.664Z,41.57
2019-03-31T05:33:03.651Z,41.41
2019-03-31T05:34:18.053Z,41.57
2019-03-31T05:36:31.358Z,41.73
2019-03-31T05:37:31.351Z,41.89
2019-03-31T05:38:31.346Z,41.57
2019-03-31T05:39:31.340Z,41.73
2019-03-31T05:40:31.328Z,41.57
2019-03-31T05:41:31.325Z,41.57
2019-03-31T05:42:31.318Z,41.41
2019-03-31T05:43:31.313Z,41.57
2019-03-31T05:44:31.305Z,41.73
2019-03-31T05:45:31.302Z,41.57
2019-03-31T05:46:31.294Z,41.08
2019-03-31T05:47:31.287Z,41.25
2019-03-31T05:48:31.284Z,41.57
2019-03-31T05:49:31.278Z,41.25
2019-03-31T05:50:31.267Z,41.41
2019-03-31T05:51:31.263Z,41.57
2019-03-31T05:52:31.258Z,41.25
2019-03-31T05:53:31.252Z,41.08
2019-03-31T05:54:31.247Z,41.41
2019-03-31T05:55:31.238Z,41.25
2019-03-31T05:56:31.231Z,41.25
2019-03-31T05:57:31.227Z,41.08
2019-03-31T05:58:31.221Z,41.41
2019-03-31T05:59:31.212Z,41.08
2019-03-31T06:00:31.207Z,41.25
2019-03-31T06:01:31.201Z,41.25
2019-03-31T06:02:31.193Z,41.08
2019-03-31T06:03:31.190Z,41.08
2019-03-31T06:04:33.255Z,41.08
2019-03-31T06:05:31.180Z,41.25
2019-03-31T06:06:31.170Z,41.08
2019-03-31T06:07:31.162Z,41.25
2019-03-31T06:08:31.158Z,41.41
2019-03-31T06:09:31.173Z,41.08
2019-03-31T06:10:31.467Z,40.60
2019-03-31T06:11:31.163Z,41.25
2019-03-31T06:12:31.156Z,40.92
2019-03-31T06:13:31.150Z,41.25
2019-03-31T06:14:31.142Z,41.25
2019-03-31T06:15:31.134Z,40.76
2019-03-31T06:16:31.132Z,41.08
2019-03-31T06:17:31.120Z,40.92
2019-03-31T06:18:31.119Z,40.76
2019-03-31T06:19:31.115Z,41.08
2019-03-31T06:20:31.106Z,40.76
2019-03-31T06:21:31.103Z,41.08
2019-03-31T06:22:31.093Z,40.60
2019-03-31T06:23:31.084Z,40.60
2019-03-31T06:24:31.079Z,40.76
2019-03-31T06:25:31.083Z,41.08
2019-03-31T06:26:31.116Z,40.76
2019-03-31T06:27:31.058Z,40.60
2019-03-31T06:28:31.052Z,40.60
2019-03-31T06:29:31.053Z,40.60
2019-03-31T06:30:31.038Z,40.60
2019-03-31T06:31:31.035Z,40.76
2019-03-31T06:32:31.031Z,40.60
2019-03-31T06:33:31.019Z,40.60
2019-03-31T06:34:31.015Z,40.60
2019-03-31T06:35:31.011Z,40.76
2019-03-31T06:36:31.000Z,40.60
2019-03-31T06:37:30.996Z,40.76
2019-03-31T06:38:30.990Z,40.28
2019-03-31T06:39:34.126Z,40.60
2019-03-31T06:40:30.978Z,40.60
2019-03-31T06:41:30.970Z,40.60
2019-03-31T06:42:30.963Z,40.44
2019-03-31T06:43:30.958Z,40.44
2019-03-31T06:44:30.953Z,40.76
2019-03-31T06:45:30.948Z,40.44
2019-03-31T06:46:30.940Z,40.60
2019-03-31T06:47:30.935Z,40.12
2019-03-31T06:48:30.927Z,40.60
2019-03-31T06:49:30.920Z,40.28
2019-03-31T06:50:30.912Z,40.60
2019-03-31T06:51:30.907Z,40.44
2019-03-31T06:52:30.898Z,40.44
2019-03-31T06:53:30.896Z,40.60
2019-03-31T06:54:30.886Z,40.60
2019-03-31T06:55:30.919Z,40.60
2019-03-31T06:56:30.872Z,40.60
2019-03-31T06:57:30.867Z,40.60
2019-03-31T06:58:30.863Z,40.44
2019-03-31T06:59:30.862Z,40.60
2019-03-31T07:00:30.847Z,40.12
2019-03-31T07:01:30.840Z,40.44
2019-03-31T07:02:30.837Z,40.12
2019-03-31T07:03:30.829Z,40.60
2019-03-31T07:04:30.822Z,40.28
2019-03-31T07:05:30.813Z,40.44
2019-03-31T07:06:30.811Z,39.96
2019-03-31T07:07:30.803Z,40.44
2019-03-31T07:08:30.797Z,40.12
2019-03-31T07:09:30.798Z,40.60
2019-03-31T07:10:30.784Z,40.44
2019-03-31T07:11:30.775Z,40.44
2019-03-31T07:12:30.768Z,39.79
2019-03-31T07:13:30.765Z,40.12
2019-03-31T07:14:30.757Z,40.28
2019-03-31T07:15:30.751Z,40.12
2019-03-31T07:16:30.744Z,39.96
2019-03-31T07:17:30.737Z,40.28
2019-03-31T07:18:30.731Z,39.96
2019-03-31T07:19:30.729Z,40.28
2019-03-31T07:20:30.719Z,39.96
2019-03-31T07:21:30.716Z,40.76
2019-03-31T07:22:30.707Z,40.60
2019-03-31T07:23:30.703Z,40.60
2019-03-31T07:24:30.696Z,40.60
2019-03-31T07:25:30.687Z,40.60
2019-03-31T07:26:30.682Z,40.28
2019-03-31T07:27:30.676Z,40.60
2019-03-31T07:28:30.671Z,40.60
2019-03-31T07:29:30.662Z,40.60
2019-03-31T07:30:30.655Z,40.60
2019-03-31T07:31:30.649Z,40.60
2019-03-31T07:32:30.645Z,40.44
2019-03-31T07:33:30.648Z,40.60
2019-03-31T07:34:30.634Z,40.44
2019-03-31T07:35:30.626Z,40.60
2019-03-31T07:36:30.620Z,40.28
2019-03-31T07:37:30.614Z,40.44
2019-03-31T07:38:38.686Z,40.60
2019-03-31T07:41:11.741Z,40.28
2019-03-31T07:43:25.086Z,40.44
2019-03-31T07:44:25.081Z,40.28
2019-03-31T07:45:25.074Z,39.96
2019-03-31T07:46:25.067Z,40.44
2019-03-31T07:47:25.065Z,40.44
2019-03-31T07:48:25.057Z,40.44
2019-03-31T07:49:25.055Z,40.12
2019-03-31T07:50:28.183Z,40.60
2019-03-31T07:51:25.033Z,40.28
2019-03-31T07:52:25.026Z,40.12
2019-03-31T07:53:25.020Z,40.28
2019-03-31T07:54:25.013Z,40.28
2019-03-31T07:55:25.005Z,40.60
2019-03-31T07:56:25.014Z,40.76
2019-03-31T07:57:25.011Z,40.60
2019-03-31T07:58:25.003Z,40.44
2019-03-31T07:59:24.997Z,41.08
2019-03-31T08:00:24.990Z,40.44
2019-03-31T08:01:24.984Z,40.44
2019-03-31T08:02:24.979Z,40.60
2019-03-31T08:03:24.973Z,40.44
2019-03-31T08:04:24.966Z,40.28
2019-03-31T08:05:32.987Z,40.12
2019-03-31T08:07:52.682Z,40.60
2019-03-31T08:08:53.509Z,40.28
2019-03-31T08:09:52.671Z,40.44
2019-03-31T08:10:52.664Z,40.44
2019-03-31T08:11:52.660Z,40.12
2019-03-31T08:12:52.652Z,39.96
2019-03-31T08:13:55.241Z,39.79
2019-03-31T08:14:52.637Z,39.63
2019-03-31T08:15:52.632Z,39.31
2019-03-31T08:16:52.625Z,38.99
2019-03-31T08:17:52.618Z,40.44
2019-03-31T08:18:52.616Z,40.92
2019-03-31T08:19:52.603Z,40.60
2019-03-31T08:20:52.600Z,40.28
2019-03-31T08:21:52.592Z,40.44
2019-03-31T08:22:52.586Z,40.12
2019-03-31T08:23:52.578Z,40.28
2019-03-31T08:24:52.573Z,40.44
2019-03-31T08:25:52.564Z,39.79
2019-03-31T08:26:52.560Z,39.79
2019-03-31T08:27:52.579Z,40.12
2019-03-31T08:28:52.569Z,39.79
2019-03-31T08:30:00.535Z,39.63
2019-03-31T08:32:20.280Z,39.63
2019-03-31T08:33:20.274Z,40.28
2019-03-31T08:34:20.263Z,40.12
2019-03-31T08:35:20.260Z,39.79
2019-03-31T08:36:20.255Z,39.79
2019-03-31T08:37:20.247Z,39.31
2019-03-31T08:38:20.241Z,39.63
2019-03-31T08:39:20.234Z,39.63
2019-03-31T08:40:20.224Z,38.83
2019-03-31T08:41:20.221Z,39.31
2019-03-31T08:42:20.214Z,39.15
2019-03-31T08:43:20.207Z,39.31
2019-03-31T08:44:20.198Z,38.83
2019-03-31T08:45:20.195Z,39.15
2019-03-31T08:46:20.189Z,38.51
2019-03-31T08:47:20.185Z,38.99
2019-03-31T08:48:20.179Z,38.83
2019-03-31T08:49:20.174Z,38.99
2019-03-31T08:50:20.166Z,39.15
2019-03-31T08:51:20.160Z,38.99
2019-03-31T08:52:20.155Z,38.99
2019-03-31T08:53:20.150Z,39.31
2019-03-31T08:54:20.144Z,38.83
2019-03-31T08:55:20.139Z,38.99
2019-03-31T08:56:20.133Z,38.99
2019-03-31T08:57:20.128Z,39.15
2019-03-31T08:58:20.324Z,38.99
2019-03-31T08:59:20.113Z,38.83
2019-03-31T09:00:20.132Z,38.51
2019-03-31T09:01:20.125Z,37.86
2019-03-31T09:02:20.121Z,38.99
2019-03-31T09:03:20.113Z,38.34
2019-03-31T09:04:20.105Z,38.83
2019-03-31T09:05:20.101Z,39.15
2019-03-31T09:06:20.098Z,39.31
2019-03-31T09:07:20.087Z,39.15
2019-03-31T09:08:20.079Z,39.15
2019-03-31T09:10:20.069Z,39.79
2019-03-31T09:11:20.069Z,39.63
2019-03-31T09:12:20.055Z,40.12
2019-03-31T09:13:20.052Z,40.12
2019-03-31T09:14:20.047Z,40.12
2019-03-31T09:15:20.039Z,40.60
2019-03-31T09:16:20.036Z,40.60
2019-03-31T09:17:20.032Z,40.92
2019-03-31T09:18:20.027Z,40.76
2019-03-31T09:19:20.020Z,41.08
2019-03-31T09:20:20.010Z,40.92
2019-03-31T09:21:20.003Z,41.08
2019-03-31T09:22:19.998Z,41.08
2019-03-31T09:23:19.992Z,41.41
2019-03-31T09:24:19.985Z,41.08
2019-03-31T09:25:19.981Z,41.41
2019-03-31T09:26:19.977Z,41.73
2019-03-31T09:27:19.970Z,41.41
2019-03-31T09:28:19.987Z,41.57
2019-03-31T09:29:19.980Z,41.57
2019-03-31T09:30:19.972Z,41.89
2019-03-31T09:31:19.970Z,41.73
2019-03-31T09:32:19.963Z,41.89
2019-03-31T09:33:19.956Z,41.57
2019-03-31T09:34:19.950Z,41.89
2019-03-31T09:35:19.946Z,41.73
2019-03-31T09:36:19.940Z,41.25
2019-03-31T09:37:19.940Z,41.57
2019-03-31T09:38:19.930Z,41.25
2019-03-31T09:40:47.648Z,41.08
2019-03-31T09:41:47.644Z,41.08
2019-03-31T09:42:47.639Z,40.92
2019-03-31T09:43:47.633Z,40.60
2019-03-31T09:44:47.627Z,40.12
2019-03-31T09:45:47.618Z,40.28
2019-03-31T09:46:47.616Z,40.44
2019-03-31T09:47:47.633Z,40.12
2019-03-31T09:48:47.601Z,39.96
2019-03-31T09:49:47.594Z,40.28
2019-03-31T09:50:47.587Z,39.47
2019-03-31T09:51:47.581Z,39.63
2019-03-31T09:52:47.575Z,39.47
2019-03-31T09:53:47.571Z,39.63
2019-03-31T09:54:47.562Z,39.63
2019-03-31T09:55:47.555Z,39.47
2019-03-31T09:56:47.549Z,39.47
2019-03-31T09:57:47.544Z,39.63
2019-03-31T09:58:47.564Z,39.63
2019-03-31T09:59:47.555Z,39.15
2019-03-31T10:00:47.552Z,39.15
2019-03-31T10:01:47.543Z,39.47
2019-03-31T10:02:47.537Z,39.31
2019-03-31T10:03:47.532Z,39.79
2019-03-31T10:04:47.525Z,39.63
2019-03-31T10:09:42.954Z,39.63
2019-03-31T10:10:42.998Z,39.47
2019-03-31T10:11:42.940Z,39.63
2019-03-31T10:12:42.936Z,39.96
2019-03-31T10:13:42.931Z,40.12
2019-03-31T10:14:42.925Z,40.60
2019-03-31T10:15:42.950Z,40.44
2019-03-31T10:16:42.942Z,40.44
2019-03-31T10:17:42.938Z,40.44
2019-03-31T10:18:42.932Z,40.60
2019-03-31T10:19:42.927Z,40.60
2019-03-31T10:20:42.926Z,40.44
2019-03-31T10:21:42.913Z,40.12
2019-03-31T10:22:42.906Z,39.96
2019-03-31T10:23:42.900Z,40.28
2019-03-31T10:24:42.891Z,40.44
2019-03-31T10:25:42.887Z,40.60
2019-03-31T10:26:42.933Z,40.60
2019-03-31T10:27:42.878Z,41.08
2019-03-31T10:28:42.870Z,40.60
2019-03-31T10:29:42.862Z,41.08
2019-03-31T10:30:42.856Z,41.08
2019-03-31T10:31:42.850Z,41.41
2019-03-31T10:32:42.847Z,41.41
2019-03-31T10:33:42.842Z,41.57
2019-03-31T10:34:42.835Z,41.89
2019-03-31T10:35:42.829Z,41.89
2019-03-31T10:36:44.763Z,42.05
2019-03-31T10:37:42.818Z,42.53
2019-03-31T10:38:42.816Z,42.53
2019-03-31T10:39:42.806Z,42.86
2019-03-31T10:40:42.811Z,42.53
2019-03-31T10:41:42.796Z,42.70
2019-03-31T10:42:42.788Z,42.70
2019-03-31T10:43:42.784Z,42.86
2019-03-31T10:44:42.776Z,42.37
2019-03-31T10:45:42.768Z,43.02
2019-03-31T10:46:42.766Z,43.18
2019-03-31T10:47:42.762Z,42.70
2019-03-31T10:48:42.751Z,42.05
2019-03-31T10:49:42.751Z,42.37
2019-03-31T10:51:42.734Z,41.89
2019-03-31T10:52:42.728Z,41.57
2019-03-31T10:53:42.745Z,41.73
2019-03-31T10:54:42.735Z,41.73
2019-03-31T10:55:42.730Z,41.08
2019-03-31T10:56:42.725Z,41.73
2019-03-31T10:57:42.722Z,41.41
2019-03-31T10:58:42.714Z,41.41
2019-03-31T10:59:42.708Z,41.57
2019-03-31T11:00:44.407Z,41.08
2019-03-31T11:01:42.699Z,41.57
2019-03-31T11:02:42.692Z,41.08
2019-03-31T11:03:42.690Z,41.41
2019-03-31T11:04:42.679Z,41.25
2019-03-31T11:05:42.673Z,40.92
2019-03-31T11:06:42.666Z,41.25
2019-03-31T11:09:10.381Z,41.25
2019-03-31T11:10:10.381Z,40.76
2019-03-31T11:11:10.368Z,41.08
2019-03-31T11:12:10.361Z,41.08
2019-03-31T11:13:10.360Z,41.25
2019-03-31T11:14:10.349Z,41.08
2019-03-31T11:15:10.342Z,41.25
2019-03-31T11:16:10.333Z,40.92
2019-03-31T11:17:10.327Z,41.41
2019-03-31T11:18:10.322Z,41.08
2019-03-31T11:19:10.316Z,41.25
2019-03-31T11:20:10.308Z,41.41
2019-03-31T11:21:10.303Z,41.25
2019-03-31T11:22:10.299Z,41.41
2019-03-31T11:23:10.291Z,40.92
2019-03-31T11:24:10.287Z,40.92
2019-03-31T11:25:20.609Z,41.89
2019-03-31T11:27:37.518Z,41.89
2019-03-31T11:28:37.511Z,41.89
2019-03-31T11:29:37.504Z,42.05
2019-03-31T11:30:37.498Z,42.05
2019-03-31T11:31:37.492Z,41.57
2019-03-31T11:32:37.491Z,41.41
2019-03-31T11:33:37.478Z,40.76
2019-03-31T11:34:37.475Z,40.92
2019-03-31T11:35:37.472Z,40.60
2019-03-31T11:36:37.459Z,41.25
2019-03-31T11:37:37.458Z,40.60
2019-03-31T11:38:37.449Z,41.08
2019-03-31T11:39:37.440Z,40.28
2019-03-31T11:41:37.432Z,41.08
2019-03-31T11:42:37.419Z,40.92
2019-03-31T11:43:37.423Z,41.08
2019-03-31T11:44:37.407Z,41.08
2019-03-31T11:45:37.400Z,41.08
2019-03-31T11:46:37.416Z,40.92
2019-03-31T11:47:37.410Z,40.92
2019-03-31T11:48:37.404Z,40.44
2019-03-31T11:49:37.398Z,41.08
2019-03-31T11:50:37.394Z,40.76
2019-03-31T11:51:37.384Z,40.76
2019-03-31T11:52:37.377Z,40.92
2019-03-31T11:53:37.372Z,41.08
2019-03-31T11:54:37.365Z,40.92
2019-03-31T11:55:37.363Z,41.08
2019-03-31T11:56:37.352Z,41.08
2019-03-31T11:57:37.343Z,40.76
2019-03-31T11:58:37.338Z,40.92
2019-03-31T11:59:37.333Z,40.60
2019-03-31T12:00:37.329Z,40.76
2019-03-31T12:01:37.318Z,40.76
2019-03-31T12:02:37.316Z,40.92
2019-03-31T12:03:37.305Z,41.08
2019-03-31T12:04:37.296Z,40.92
2019-03-31T12:05:37.294Z,41.08
2019-03-31T12:08:04.507Z,41.25
2019-03-31T12:09:04.498Z,41.41
2019-03-31T12:10:04.497Z,41.25
2019-03-31T12:11:04.485Z,41.25
2019-03-31T12:12:04.480Z,41.25
2019-03-31T12:13:04.477Z,41.41
2019-03-31T12:14:04.463Z,41.41
2019-03-31T12:15:04.460Z,41.25
2019-03-31T12:16:04.455Z,41.08
2019-03-31T12:17:04.444Z,41.41
2019-03-31T12:18:04.438Z,41.25
2019-03-31T12:19:04.434Z,41.08
2019-03-31T12:20:04.425Z,41.25
2019-03-31T12:21:04.423Z,41.41
2019-03-31T12:22:04.412Z,41.25
2019-03-31T12:23:04.406Z,41.25
2019-03-31T12:24:04.404Z,41.41
2019-03-31T12:25:04.390Z,41.25
2019-03-31T12:26:04.391Z,41.08
2019-03-31T12:27:04.378Z,41.25
2019-03-31T12:28:04.370Z,41.41
2019-03-31T12:29:04.366Z,41.08
2019-03-31T12:30:04.361Z,41.25
2019-03-31T12:31:04.357Z,41.08
2019-03-31T12:32:04.347Z,41.25
2019-03-31T12:33:04.350Z,41.25
2019-03-31T12:34:04.336Z,41.25
2019-03-31T12:35:04.328Z,41.41
2019-03-31T12:36:04.323Z,41.25
2019-03-31T12:37:04.338Z,41.25
2019-03-31T12:38:04.335Z,41.41
2019-03-31T12:39:04.324Z,41.25
2019-03-31T12:40:04.320Z,41.25
2019-03-31T12:41:04.313Z,41.25
2019-03-31T12:42:04.311Z,41.41
2019-03-31T12:43:04.305Z,41.08
2019-03-31T12:44:04.292Z,40.92
2019-03-31T12:45:04.286Z,41.08
2019-03-31T12:46:04.279Z,40.60
2019-03-31T12:47:04.271Z,40.44
2019-03-31T12:48:04.265Z,41.08
2019-03-31T12:49:04.258Z,40.60
2019-03-31T12:50:04.258Z,41.08
2019-03-31T12:51:04.246Z,40.92
2019-03-31T12:52:04.241Z,40.60
2019-03-31T12:53:04.238Z,40.92
2019-03-31T12:54:04.238Z,40.76
2019-03-31T12:55:04.227Z,40.92
2019-03-31T12:56:04.218Z,40.60
2019-03-31T12:57:04.215Z,40.60
2019-03-31T12:58:04.208Z,41.08
2019-03-31T12:59:04.204Z,40.92
2019-03-31T13:00:04.196Z,40.92
2019-03-31T13:01:04.189Z,41.25
2019-03-31T13:02:04.176Z,40.92
2019-03-31T13:03:04.171Z,40.60
2019-03-31T13:04:04.166Z,40.28
2019-03-31T13:05:04.155Z,40.28
2019-03-31T13:06:04.151Z,40.60
2019-03-31T13:07:04.146Z,40.12
2019-03-31T13:08:04.144Z,40.28
2019-03-31T13:09:04.133Z,40.12
2019-03-31T13:10:04.129Z,40.44
2019-03-31T13:11:04.118Z,39.96
2019-03-31T13:12:04.112Z,40.44
2019-03-31T13:13:04.104Z,40.28
2019-03-31T13:14:04.099Z,40.44
2019-03-31T13:15:04.088Z,40.28
2019-03-31T13:16:04.086Z,40.28
2019-03-31T13:17:04.077Z,39.96
2019-03-31T13:18:04.067Z,40.28
2019-03-31T13:19:04.063Z,40.12